createdAt,value
2023-10-10T00:00:56.965Z,41.28
2023-10-10T00:03:28.800Z,40.05
2023-10-10T00:06:00.093Z,40.90
2023-10-10T00:08:34.932Z,37.70
2023-10-10T00:11:10.885Z,34.95
2023-10-10T00:13:44.114Z,43.50
2023-10-10T00:16:21.496Z,42.90
2023-10-10T00:18:57.142Z,40.78
2023-10-10T00:21:29.963Z,40.38
2023-10-10T00:24:00.655Z,42.70
2023-10-10T00:26:31.105Z,43.10
2023-10-10T00:29:01.649Z,40.20
2023-10-10T00:31:34.927Z,38.83
2023-10-10T00:34:08.597Z,40.90
2023-10-10T00:36:38.576Z,40.90
2023-10-10T00:39:23.524Z,36.85
2023-10-10T00:41:56.371Z,36.35
2023-10-10T00:44:27.045Z,37.38
2023-10-10T00:46:59.087Z,31.70
2023-10-10T00:49:32.747Z,29.58
2023-10-10T00:52:08.109Z,34.58
2023-10-10T00:54:44.764Z,33.63
2023-10-10T00:57:17.538Z,35.92
2023-10-10T00:59:47.347Z,30.92
2023-10-10T01:02:18.651Z,36.90
2023-10-10T01:04:58.769Z,33.83
2023-10-10T01:07:28.529Z,35.35
2023-10-10T01:10:11.680Z,37.40
2023-10-10T01:12:42.202Z,33.78
2023-10-10T01:15:16.020Z,30.65
2023-10-10T01:17:47.151Z,31.05
2023-10-10T01:20:26.474Z,31.50
2023-10-10T01:22:58.062Z,31.42
2023-10-10T01:25:47.491Z,35.63
2023-10-10T01:28:28.789Z,33.00
2023-10-10T01:31:05.234Z,37.67
2023-10-10T01:33:49.087Z,37.65
2023-10-10T01:36:22.319Z,35.90
2023-10-10T01:39:26.025Z,39.13
2023-10-10T01:41:55.127Z,41.30
2023-10-10T01:44:26.147Z,43.15
2023-10-10T01:46:55.718Z,43.30
2023-10-10T01:49:30.366Z,38.35
2023-10-10T01:52:02.238Z,37.30
2023-10-10T01:54:43.359Z,37.35
2023-10-10T01:57:23.133Z,38.65
2023-10-10T01:59:59.253Z,36.28
2023-10-10T02:02:31.994Z,38.42
2023-10-10T02:05:01.825Z,36.80
2023-10-10T02:07:34.384Z,34.15
2023-10-10T02:10:15.350Z,40.42
2023-10-10T02:12:46.665Z,38.55
2023-10-10T02:15:20.627Z,38.35
2023-10-10T02:17:56.329Z,42.00
2023-10-10T02:23:45.796Z,42.33
2023-10-10T02:26:25.469Z,47.95
2023-10-10T02:29:17.188Z,44.67
2023-10-10T02:31:52.933Z,43.67
2023-10-10T02:34:23.059Z,46.00
2023-10-10T02:37:13.960Z,45.35
2023-10-10T02:39:50.529Z,46.60
2023-10-10T02:42:21.158Z,46.50
2023-10-10T02:44:53.894Z,48.97
2023-10-10T02:47:32.691Z,45.50
2023-10-10T02:50:14.089Z,46.47
2023-10-10T02:52:47.079Z,50.55
2023-10-10T02:55:24.307Z,46.15
2023-10-10T02:57:55.546Z,43.88
2023-10-10T03:00:30.817Z,47.72
2023-10-10T03:03:01.381Z,46.10
2023-10-10T03:05:45.602Z,40.42
2023-10-10T03:08:17.907Z,42.05
2023-10-10T03:10:56.382Z,45.08
2023-10-10T03:13:37.458Z,42.53
2023-10-10T03:16:42.982Z,42.15
2023-10-10T03:19:27.666Z,45.08
2023-10-10T03:22:12.713Z,40.75
2023-10-10T03:25:06.364Z,46.92
2023-10-10T03:27:51.893Z,42.65
2023-10-10T03:30:35.343Z,43.58
2023-10-10T03:33:10.921Z,41.53
2023-10-10T03:36:06.975Z,46.08
2023-10-10T03:38:58.607Z,44.88
2023-10-10T03:41:49.801Z,43.70
2023-10-10T03:44:37.569Z,39.13
2023-10-10T03:47:24.633Z,41.58
2023-10-10T03:50:12.956Z,39.75
2023-10-10T03:53:01.409Z,41.40
2023-10-10T03:55:47.866Z,38.78
2023-10-10T03:58:34.113Z,40.40
2023-10-10T04:01:21.950Z,41.20
2023-10-10T04:04:08.243Z,39.65
2023-10-10T04:06:54.399Z,31.02
2023-10-10T04:09:41.193Z,38.35
2023-10-10T04:12:27.465Z,40.55
2023-10-10T04:15:14.350Z,36.15
2023-10-10T04:18:02.257Z,41.08
2023-10-10T04:20:48.533Z,38.38
2023-10-10T04:23:35.094Z,36.45
2023-10-10T04:26:22.471Z,40.10
2023-10-10T04:29:08.868Z,34.65
2023-10-10T04:32:09.760Z,38.33
2023-10-10T04:34:57.651Z,34.22
2023-10-10T04:37:44.259Z,34.78
2023-10-10T04:40:30.838Z,32.75
2023-10-10T04:43:17.244Z,30.88
2023-10-10T04:46:08.859Z,30.30
2023-10-10T04:48:55.629Z,30.55
2023-10-10T04:51:43.554Z,32.67
2023-10-10T04:54:29.806Z,32.53
2023-10-10T04:57:16.254Z,40.35
2023-10-10T05:00:02.644Z,39.88
2023-10-10T05:02:51.352Z,46.13
2023-10-10T05:05:39.313Z,41.13
2023-10-10T05:08:27.336Z,41.55
2023-10-10T05:11:13.831Z,41.13
2023-10-10T05:14:00.168Z,42.13
2023-10-10T05:16:46.776Z,39.90
2023-10-10T05:19:33.449Z,47.45
2023-10-10T05:22:25.202Z,38.40
2023-10-10T05:24:57.707Z,39.10
2023-10-10T05:27:34.316Z,43.13
2023-10-10T05:30:03.701Z,40.55
2023-10-10T05:32:33.758Z,40.40
2023-10-10T05:35:12.819Z,42.90
2023-10-10T05:37:42.300Z,43.08
2023-10-10T05:40:15.501Z,41.60
2023-10-10T05:42:44.936Z,44.13
2023-10-10T05:45:15.346Z,40.70
2023-10-10T05:47:45.630Z,45.10
2023-10-10T05:50:14.987Z,46.95
2023-10-10T05:52:45.332Z,47.33
2023-10-10T05:55:16.486Z,50.22
2023-10-10T05:57:47.353Z,46.00
2023-10-10T06:00:16.829Z,45.80
2023-10-10T06:02:47.989Z,46.25
2023-10-10T06:05:19.367Z,42.72
2023-10-10T06:07:50.992Z,41.42
2023-10-10T06:10:21.981Z,40.58
2023-10-10T06:12:51.645Z,39.72
2023-10-10T06:15:21.101Z,32.63
2023-10-10T06:17:51.302Z,33.95
2023-10-10T06:20:23.150Z,32.05
2023-10-10T06:22:56.435Z,29.08
2023-10-10T06:25:27.066Z,24.98
2023-10-10T06:27:58.559Z,22.65
2023-10-10T06:30:27.674Z,27.55
2023-10-10T06:33:10.442Z,25.50
2023-10-10T06:35:39.866Z,23.55
2023-10-10T06:38:11.686Z,26.77
2023-10-10T06:40:54.402Z,20.95
2023-10-10T06:43:25.456Z,23.40
2023-10-10T06:45:57.373Z,19.33
2023-10-10T06:48:34.099Z,20.27
2023-10-10T06:51:03.254Z,24.35
2023-10-10T06:53:36.902Z,21.45
2023-10-10T06:56:16.414Z,27.83
2023-10-10T06:58:47.031Z,23.95
2023-10-10T07:01:20.661Z,25.02
2023-10-10T07:03:56.048Z,24.90
2023-10-10T07:06:26.147Z,24.88
2023-10-10T07:09:16.109Z,22.33
2023-10-10T07:11:47.143Z,25.35
2023-10-10T07:14:17.968Z,30.60
2023-10-10T07:16:47.248Z,24.77
2023-10-10T07:19:25.369Z,27.25
2023-10-10T07:21:53.564Z,24.83
2023-10-10T07:24:30.208Z,27.75
2023-10-10T07:27:12.485Z,25.90
2023-10-10T07:30:13.232Z,28.45
2023-10-10T07:32:44.444Z,27.17
2023-10-10T07:35:17.405Z,30.95
2023-10-10T07:37:47.296Z,28.30
2023-10-10T07:40:29.748Z,28.08
2023-10-10T07:43:04.697Z,28.00
2023-10-10T07:45:44.857Z,25.92
2023-10-10T07:48:32.120Z,30.02
2023-10-10T07:51:08.986Z,28.63
2023-10-10T07:53:59.788Z,28.85
2023-10-10T07:56:31.737Z,28.92
2023-10-10T07:59:06.506Z,32.00
2023-10-10T08:01:39.476Z,31.73
2023-10-10T08:04:08.976Z,38.80
2023-10-10T08:06:39.944Z,40.10
2023-10-10T08:09:19.724Z,42.55
2023-10-10T08:11:56.614Z,34.13
2023-10-10T08:14:32.665Z,40.97
2023-10-10T08:17:05.851Z,37.03
2023-10-10T08:19:36.117Z,54.78
2023-10-10T08:22:14.028Z,42.92
2023-10-10T08:24:45.338Z,43.50
2023-10-10T08:27:15.691Z,45.97
2023-10-10T08:29:46.645Z,50.67
2023-10-10T08:32:15.937Z,52.10
2023-10-10T08:34:45.246Z,44.78
2023-10-10T08:37:16.731Z,50.90
2023-10-10T08:39:51.278Z,49.05
2023-10-10T08:42:26.903Z,49.88
2023-10-10T08:44:59.961Z,52.88
2023-10-10T08:47:34.202Z,52.35
2023-10-10T08:50:05.301Z,47.05
2023-10-10T08:52:35.067Z,46.33
2023-10-10T08:55:05.423Z,47.67
2023-10-10T08:57:39.622Z,41.05
2023-10-10T09:00:13.203Z,43.75
2023-10-10T09:02:43.060Z,41.40
2023-10-10T09:05:15.621Z,43.17
2023-10-10T09:07:45.599Z,41.17
2023-10-10T09:10:16.510Z,42.30
2023-10-10T09:12:57.759Z,51.10
2023-10-10T09:15:29.118Z,45.75
2023-10-10T09:18:16.107Z,46.70
2023-10-10T09:20:46.959Z,44.60
2023-10-10T09:23:24.864Z,40.78
2023-10-10T09:26:10.932Z,39.70
2023-10-10T09:28:46.994Z,49.20
2023-10-10T09:31:28.182Z,37.47
2023-10-10T09:33:58.148Z,41.05
2023-10-10T09:36:29.342Z,47.00
2023-10-10T09:39:10.377Z,43.65
2023-10-10T09:42:00.378Z,42.53
2023-10-10T09:44:53.292Z,43.92
2023-10-10T09:47:42.661Z,43.97
2023-10-10T09:50:38.779Z,45.50
2023-10-10T09:53:21.963Z,49.38
2023-10-10T09:55:55.127Z,41.67
2023-10-10T09:58:28.961Z,49.88
2023-10-10T10:01:14.570Z,46.65
2023-10-10T10:03:56.684Z,42.63
2023-10-10T10:07:06.209Z,48.15
2023-10-10T10:09:53.166Z,42.05
2023-10-10T10:13:10.154Z,41.38
2023-10-10T10:15:52.243Z,44.65
2023-10-10T10:18:45.865Z,39.05
2023-10-10T10:21:29.312Z,43.55
2023-10-10T10:24:17.291Z,40.88
2023-10-10T10:26:47.053Z,52.80
2023-10-10T10:29:29.912Z,43.22
2023-10-10T10:32:04.255Z,39.05
2023-10-10T10:34:36.821Z,47.38
2023-10-10T10:37:14.887Z,47.55
2023-10-10T10:40:08.009Z,44.70
2023-10-10T10:42:38.807Z,39.95
2023-10-10T10:45:35.351Z,43.00
2023-10-10T10:48:10.106Z,43.78
2023-10-10T10:50:47.099Z,40.60
2023-10-10T10:53:38.955Z,46.33
2023-10-10T10:56:26.008Z,48.50
2023-10-10T10:59:11.635Z,40.22
2023-10-10T11:01:53.709Z,43.38
2023-10-10T11:04:41.282Z,44.90
2023-10-10T11:07:11.332Z,43.13
2023-10-10T11:09:54.302Z,44.78
2023-10-10T11:12:33.439Z,46.30
2023-10-10T11:15:08.459Z,40.55
2023-10-10T11:17:41.567Z,39.30
2023-10-10T11:20:51.754Z,37.58
2023-10-10T11:23:24.494Z,45.50
2023-10-10T11:26:02.012Z,44.30
2023-10-10T11:28:38.948Z,41.88
2023-10-10T11:31:09.182Z,43.25
2023-10-10T11:33:57.204Z,42.30
2023-10-10T11:36:31.194Z,42.42
2023-10-10T11:41:59.182Z,43.50
2023-10-10T11:44:34.934Z,35.60
2023-10-10T11:47:09.619Z,35.28
2023-10-10T11:49:43.079Z,33.75
2023-10-10T11:52:21.211Z,37.58
2023-10-10T11:54:51.493Z,41.40
2023-10-10T11:57:22.270Z,37.13
2023-10-10T11:59:51.594Z,37.15
2023-10-10T12:02:31.204Z,39.15
2023-10-10T12:05:09.352Z,75.07
2023-10-10T12:07:42.029Z,45.83
2023-10-10T12:10:13.528Z,39.53
2023-10-10T12:12:46.510Z,35.40
2023-10-10T12:15:20.739Z,40.42
2023-10-10T12:17:54.341Z,30.77
2023-10-10T12:20:26.559Z,44.15
2023-10-10T12:22:56.110Z,39.92
2023-10-10T12:25:25.326Z,39.63
2023-10-10T12:28:01.844Z,40.05
2023-10-10T12:30:31.305Z,41.55
2023-10-10T12:33:02.766Z,52.90
2023-10-10T12:35:32.233Z,41.42
2023-10-10T12:38:02.596Z,37.47
2023-10-10T12:40:34.859Z,41.35
2023-10-10T12:43:05.931Z,36.63
2023-10-10T12:45:35.257Z,27.73
2023-10-10T12:48:05.887Z,34.90
2023-10-10T12:50:36.299Z,32.22
2023-10-10T12:53:09.071Z,35.65
2023-10-10T12:55:50.393Z,37.15
2023-10-10T12:58:22.437Z,40.85
2023-10-10T13:00:52.967Z,34.88
2023-10-10T13:03:24.881Z,37.50
2023-10-10T13:06:00.031Z,30.13
2023-10-10T13:08:39.983Z,39.47
2023-10-10T13:11:16.500Z,29.92
2023-10-10T13:13:50.408Z,35.53
2023-10-10T13:16:26.887Z,32.85
2023-10-10T13:18:57.807Z,34.67
2023-10-10T13:21:27.799Z,39.88
2023-10-10T13:23:59.384Z,37.88
2023-10-10T13:26:29.088Z,37.13
2023-10-10T13:29:03.277Z,41.40
2023-10-10T13:31:32.612Z,38.92
2023-10-10T13:34:01.737Z,41.33
2023-10-10T13:36:31.032Z,36.33
2023-10-10T13:39:01.549Z,37.10
2023-10-10T13:41:30.820Z,40.90
2023-10-10T13:44:02.089Z,39.22
2023-10-10T13:46:34.411Z,40.85
2023-10-10T13:49:05.669Z,37.15
2023-10-10T13:51:41.202Z,35.38
2023-10-10T13:54:10.548Z,38.17
2023-10-10T13:56:45.181Z,32.42
2023-10-10T13:59:18.702Z,37.17
2023-10-10T14:01:49.434Z,39.65
2023-10-10T14:04:25.877Z,34.95
2023-10-10T14:06:55.755Z,44.75
2023-10-10T14:09:25.945Z,37.47
2023-10-10T14:12:02.138Z,40.58
2023-10-10T14:14:33.839Z,39.83
2023-10-10T14:17:03.477Z,42.83
2023-10-10T14:19:36.860Z,40.35
2023-10-10T14:22:12.145Z,35.22
2023-10-10T14:24:42.670Z,38.35
2023-10-10T14:27:12.294Z,37.55
2023-10-10T14:29:45.077Z,40.25
2023-10-10T14:32:30.915Z,34.30
2023-10-10T14:35:05.956Z,36.20
2023-10-10T14:37:49.815Z,39.05
2023-10-10T14:40:25.840Z,36.78
2023-10-10T14:42:55.704Z,41.40
2023-10-10T14:45:30.609Z,36.92
2023-10-10T14:48:00.751Z,34.75
2023-10-10T14:50:30.454Z,40.90
2023-10-10T14:53:02.483Z,38.55
2023-10-10T14:55:32.175Z,38.72
2023-10-10T14:58:09.220Z,45.20
2023-10-10T15:00:43.832Z,43.78
2023-10-10T15:03:18.362Z,41.78
2023-10-10T15:05:52.521Z,39.63
2023-10-10T15:08:24.332Z,47.88
2023-10-10T15:10:54.849Z,42.60
2023-10-10T15:13:27.441Z,38.70
2023-10-10T15:15:58.545Z,36.65
2023-10-10T15:18:31.778Z,36.58
2023-10-10T15:21:01.752Z,39.53
2023-10-10T15:23:31.076Z,44.35
2023-10-10T15:26:06.740Z,40.10
2023-10-10T15:28:36.392Z,41.47
2023-10-10T15:31:08.980Z,39.38
2023-10-10T15:33:39.038Z,38.47
2023-10-10T15:36:08.902Z,36.65
2023-10-10T15:38:38.424Z,41.38
2023-10-10T15:41:19.002Z,32.75
2023-10-10T15:43:50.265Z,34.70
2023-10-10T15:46:25.053Z,38.97
2023-10-10T15:48:55.012Z,42.50
2023-10-10T15:51:24.455Z,38.03
2023-10-10T15:53:56.607Z,39.08
2023-10-10T15:56:28.585Z,38.97
2023-10-10T15:58:58.872Z,35.08
2023-10-10T16:01:32.039Z,40.45
2023-10-10T16:04:06.826Z,36.33
2023-10-10T16:06:36.992Z,34.20
2023-10-10T16:09:12.635Z,34.70
2023-10-10T16:11:44.879Z,33.63
2023-10-10T16:14:15.377Z,36.72
2023-10-10T16:16:47.209Z,38.08
2023-10-10T16:19:21.665Z,38.45
2023-10-10T16:21:50.886Z,38.38
2023-10-10T16:24:20.405Z,37.55
2023-10-10T16:26:54.801Z,36.53
2023-10-10T16:29:24.327Z,34.97
2023-10-10T16:31:55.143Z,39.00
2023-10-10T16:34:24.509Z,38.17
2023-10-10T16:36:53.622Z,43.30
2023-10-10T16:39:24.868Z,53.40
2023-10-10T16:41:58.758Z,38.67
2023-10-10T16:44:28.279Z,44.50
2023-10-10T16:47:02.511Z,42.55
2023-10-10T16:49:32.089Z,46.45
2023-10-10T16:52:01.308Z,47.72
2023-10-10T16:54:35.135Z,43.50
2023-10-10T16:57:05.045Z,39.25
2023-10-10T16:59:34.272Z,47.58
2023-10-10T17:02:05.050Z,42.80
2023-10-10T17:04:34.927Z,47.10
2023-10-10T17:07:05.215Z,52.40
2023-10-10T17:09:37.092Z,47.25
2023-10-10T17:12:06.844Z,44.88
2023-10-10T17:14:38.867Z,49.53
2023-10-10T17:17:10.111Z,49.42
2023-10-10T17:19:39.314Z,47.30
2023-10-10T17:22:08.531Z,49.78
2023-10-10T17:24:37.792Z,46.53
2023-10-10T17:27:11.647Z,48.08
2023-10-10T17:29:41.088Z,44.75
2023-10-10T17:32:11.856Z,49.53
2023-10-10T17:34:42.204Z,50.05
2023-10-10T17:37:14.213Z,44.63
2023-10-10T17:39:45.142Z,46.03
2023-10-10T17:42:15.670Z,47.67
2023-10-10T17:44:46.442Z,47.33
2023-10-10T17:47:18.385Z,49.08
2023-10-10T17:49:49.196Z,49.28
2023-10-10T17:52:19.430Z,48.65
2023-10-10T17:54:50.889Z,45.85
2023-10-10T17:57:23.559Z,47.50
2023-10-10T17:59:54.304Z,50.80
2023-10-10T18:02:27.031Z,47.08
2023-10-10T18:04:57.703Z,50.53
2023-10-10T18:07:28.025Z,54.15
2023-10-10T18:09:58.164Z,53.92
2023-10-10T18:12:29.169Z,52.85
2023-10-10T18:15:02.430Z,51.45
2023-10-10T18:17:35.821Z,45.33
2023-10-10T18:20:16.299Z,47.90
2023-10-10T18:22:47.581Z,48.10
2023-10-10T18:25:18.114Z,58.95
2023-10-10T18:27:48.988Z,49.65
2023-10-10T18:30:20.904Z,47.03
2023-10-10T18:32:53.262Z,51.00
2023-10-10T18:35:28.520Z,51.70
2023-10-10T18:37:59.051Z,59.28
2023-10-10T18:40:29.896Z,55.63
2023-10-10T18:43:00.411Z,50.63
2023-10-10T18:45:33.599Z,55.38
2023-10-10T18:48:06.052Z,53.00
2023-10-10T18:50:38.490Z,48.58
2023-10-10T18:53:08.831Z,55.20
2023-10-10T18:55:39.208Z,50.53
2023-10-10T18:58:09.277Z,48.95
2023-10-10T19:00:41.042Z,52.15
2023-10-10T19:03:16.507Z,54.65
2023-10-10T19:05:48.508Z,50.78
2023-10-10T19:08:18.847Z,51.83
2023-10-10T19:10:52.357Z,54.60
2023-10-10T19:13:23.056Z,53.58
2023-10-10T19:15:54.358Z,45.90
2023-10-10T19:18:26.589Z,48.47
2023-10-10T19:20:56.986Z,50.38
2023-10-10T19:23:30.820Z,46.45
2023-10-10T19:26:02.537Z,47.03
2023-10-10T19:28:32.659Z,46.03
2023-10-10T19:31:02.814Z,49.13
2023-10-10T19:33:35.125Z,45.00
2023-10-10T19:36:09.655Z,44.53
2023-10-10T19:38:41.816Z,48.72
2023-10-10T19:41:12.364Z,44.08
2023-10-10T19:43:42.390Z,47.00
2023-10-10T19:46:13.419Z,55.75
2023-10-10T19:48:45.346Z,55.25
2023-10-10T19:51:20.049Z,46.78
2023-10-10T19:53:52.026Z,50.38
2023-10-10T19:56:22.915Z,51.28
2023-10-10T19:58:55.031Z,50.60
2023-10-10T20:01:27.047Z,50.20
2023-10-10T20:03:58.798Z,50.50
2023-10-10T20:06:31.785Z,51.88
2023-10-10T20:09:01.818Z,52.35
2023-10-10T20:11:32.347Z,52.55
2023-10-10T20:14:02.566Z,52.65
2023-10-10T20:16:32.765Z,50.63
2023-10-10T20:19:06.266Z,51.47
2023-10-10T20:21:39.162Z,53.83
2023-10-10T20:24:10.551Z,52.53
2023-10-10T20:26:40.772Z,52.00
2023-10-10T20:29:11.474Z,47.78
2023-10-10T20:31:44.554Z,52.30
2023-10-10T20:34:16.515Z,48.30
2023-10-10T20:36:48.180Z,48.88
2023-10-10T20:39:20.038Z,47.05
2023-10-10T20:41:51.616Z,54.40
2023-10-10T20:44:21.939Z,45.72
2023-10-10T20:46:52.658Z,49.08
2023-10-10T20:49:24.806Z,49.45
2023-10-10T20:51:56.388Z,46.63
2023-10-10T20:54:27.929Z,50.58
2023-10-10T20:56:58.257Z,44.10
2023-10-10T20:59:31.245Z,48.03
2023-10-10T21:02:01.426Z,46.28
2023-10-10T21:04:35.303Z,46.70
2023-10-10T21:07:05.271Z,46.90
2023-10-10T21:09:37.634Z,43.67
2023-10-10T21:12:08.938Z,45.08
2023-10-10T21:14:39.125Z,45.30
2023-10-10T21:17:09.022Z,49.17
2023-10-10T21:19:41.799Z,50.80
2023-10-10T21:22:12.538Z,46.20
2023-10-10T21:24:46.559Z,49.28
2023-10-10T21:27:20.252Z,45.40
2023-10-10T21:29:51.622Z,44.08
2023-10-10T21:32:22.775Z,40.30
2023-10-10T21:37:42.846Z,41.00
2023-10-10T21:40:16.042Z,40.00
2023-10-10T21:42:46.673Z,38.10
2023-10-10T21:45:17.146Z,39.90
2023-10-10T21:47:49.098Z,35.78
2023-10-10T21:50:21.737Z,40.47
2023-10-10T21:52:52.346Z,39.38
2023-10-10T21:55:24.843Z,33.53
2023-10-10T21:57:56.917Z,36.67
2023-10-10T22:00:42.109Z,32.25
2023-10-10T22:03:12.317Z,35.05
2023-10-10T22:05:46.953Z,35.17
2023-10-10T22:08:17.046Z,34.80
2023-10-10T22:10:48.597Z,30.35
2023-10-10T22:13:19.126Z,38.60
2023-10-10T22:15:49.293Z,33.42
2023-10-10T22:18:21.771Z,31.40
2023-10-10T22:20:53.713Z,30.17
2023-10-10T22:23:24.111Z,32.88
2023-10-10T22:26:00.885Z,27.77
2023-10-10T22:28:33.357Z,30.35
2023-10-10T22:31:05.230Z,28.77
2023-10-10T22:33:36.246Z,27.75
2023-10-10T22:36:16.414Z,34.45
2023-10-10T22:38:47.199Z,29.15
2023-10-10T22:41:20.343Z,30.85
2023-10-10T22:43:50.578Z,30.20
2023-10-10T22:46:21.509Z,30.42
2023-10-10T22:48:51.935Z,31.38
2023-10-10T22:51:26.139Z,27.92
2023-10-10T22:53:56.384Z,35.40
2023-10-10T22:56:26.592Z,28.80
2023-10-10T22:58:56.722Z,33.03
2023-10-10T23:01:27.184Z,31.45
2023-10-10T23:03:57.511Z,28.05
2023-10-10T23:06:30.256Z,38.13
2023-10-10T23:09:00.478Z,31.23
2023-10-10T23:11:30.882Z,32.58
2023-10-10T23:14:01.105Z,34.50
2023-10-10T23:16:31.805Z,36.25
2023-10-10T23:19:01.875Z,31.10
2023-10-10T23:21:34.123Z,32.80
2023-10-10T23:24:07.539Z,29.40
2023-10-10T23:26:38.112Z,31.92
2023-10-10T23:29:08.374Z,33.28
2023-10-10T23:31:39.126Z,28.15
2023-10-10T23:34:09.836Z,31.70
2023-10-10T23:36:41.497Z,28.98
2023-10-10T23:39:18.469Z,29.80
2023-10-10T23:41:49.307Z,31.80
2023-10-10T23:44:19.637Z,32.78
2023-10-10T23:46:50.018Z,32.55
2023-10-10T23:49:20.078Z,29.80
2023-10-10T23:51:51.836Z,30.90
2023-10-10T23:54:23.698Z,32.63
2023-10-10T23:56:53.830Z,31.17
2023-10-10T23:59:24.026Z,29.92
